sensor_id;sensor_type;location;lat;lon;timestamp;temperature;humidity
20858;DHT22;10589;53.636;10.012;2023-12-20T04:47:16;5.40;99.90
20858;DHT22;10589;53.636;10.012;2023-12-20T04:49:42;5.40;99.90
20858;DHT22;10589;53.636;10.012;2023-12-20T04:52:07;5.40;99.90
20858;DHT22;10589;53.636;10.012;2023-12-20T04:54:33;5.40;99.90
20858;DHT22;10589;53.636;10.012;2023-12-20T04:56:58;5.40;99.90
20858;DHT22;10589;53.636;10.012;2023-12-20T04:59:24;5.40;99.90
20858;DHT22;10589;53.636;10.012;2023-12-20T05:01:50;5.50;99.90
20858;DHT22;10589;53.636;10.012;2023-12-20T05:04:15;5.50;99.90
20858;DHT22;10589;53.636;10.012;2023-12-20T05:06:41;5.50;99.90
20858;DHT22;10589;53.636;10.012;2023-12-20T05:09:06;5.50;99.90
20858;DHT22;10589;53.636;10.012;2023-12-20T05:11:32;5.60;99.90
20858;DHT22;10589;53.636;10.012;2023-12-20T05:13:57;5.60;99.90
20858;DHT22;10589;53.636;10.012;2023-12-20T05:16:23;5.60;99.90
20858;DHT22;10589;53.636;10.012;2023-12-20T05:18:49;5.60;99.90
20858;DHT22;10589;53.636;10.012;2023-12-20T05:21:18;5.50;99.90
20858;DHT22;10589;53.636;10.012;2023-12-20T05:23:43;5.60;99.90
20858;DHT22;10589;53.636;10.012;2023-12-20T05:26:09;5.60;99.90
20858;DHT22;10589;53.636;10.012;2023-12-20T05:28:34;5.70;99.90
20858;DHT22;10589;53.636;10.012;2023-12-20T05:31:00;5.60;99.90
20858;DHT22;10589;53.636;10.012;2023-12-20T05:33:26;5.70;99.90
20858;DHT22;10589;53.636;10.012;2023-12-20T05:35:51;5.70;99.90
20858;DHT22;10589;53.636;10.012;2023-12-20T05:38:17;5.80;99.90
20858;DHT22;10589;53.636;10.012;2023-12-20T05:40:42;5.70;99.90
20858;DHT22;10589;53.636;10.012;2023-12-20T05:43:08;5.70;99.90
20858;DHT22;10589;53.636;10.012;2023-12-20T05:45:33;5.70;99.90
20858;DHT22;10589;53.636;10.012;2023-12-20T05:47:59;5.70;99.90
20858;DHT22;10589;53.636;10.012;2023-12-20T05:50:25;5.70;99.90
20858;DHT22;10589;53.636;10.012;2023-12-20T05:52:50;5.70;99.90
20858;DHT22;10589;53.636;10.012;2023-12-20T05:55:16;5.70;99.90
20858;DHT22;10589;53.636;10.012;2023-12-20T05:57:42;5.70;99.90
20858;DHT22;10589;53.636;10.012;2023-12-20T06:00:09;5.80;99.90
20858;DHT22;10589;53.636;10.012;2023-12-20T06:02:35;5.80;99.90
20858;DHT22;10589;53.636;10.012;2023-12-20T06:05:03;5.70;99.90
20858;DHT22;10589;53.636;10.012;2023-12-20T06:07:29;5.80;99.90
20858;DHT22;10589;53.636;10.012;2023-12-20T06:09:55;5.80;99.90
20858;DHT22;10589;53.636;10.012;2023-12-20T06:12:20;5.80;99.90
20858;DHT22;10589;53.636;10.012;2023-12-20T06:14:46;5.80;99.90
20858;DHT22;10589;53.636;10.012;2023-12-20T06:17:11;5.80;99.90
20858;DHT22;10589;53.636;10.012;2023-12-20T06:19:37;5.80;99.90
20858;DHT22;10589;53.636;10.012;2023-12-20T06:22:03;5.80;99.90
20858;DHT22;10589;53.636;10.012;2023-12-20T06:24:28;5.80;99.90
20858;DHT22;10589;53.636;10.012;2023-12-20T06:26:55;5.80;99.90
20858;DHT22;10589;53.636;10.012;2023-12-20T06:29:21;5.70;99.90
20858;DHT22;10589;53.636;10.012;2023-12-20T06:31:46;5.70;99.90
20858;DHT22;10589;53.636;10.012;2023-12-20T06:34:12;5.70;99.90
20858;DHT22;10589;53.636;10.012;2023-12-20T06:36:37;5.70;99.90
20858;DHT22;10589;53.636;10.012;2023-12-20T06:39:03;5.80;99.90
20858;DHT22;10589;53.636;10.012;2023-12-20T06:41:30;5.80;99.90
20858;DHT22;10589;53.636;10.012;2023-12-20T06:43:55;5.80;99.90
20858;DHT22;10589;53.636;10.012;2023-12-20T06:46:21;5.90;99.90
20858;DHT22;10589;53.636;10.012;2023-12-20T06:48:46;5.90;99.90
20858;DHT22;10589;53.636;10.012;2023-12-20T06:51:16;5.80;99.90
20858;DHT22;10589;53.636;10.012;2023-12-20T06:53:42;5.90;99.90
20858;DHT22;10589;53.636;10.012;2023-12-20T06:56:08;5.80;99.90
20858;DHT22;10589;53.636;10.012;2023-12-20T06:58:34;5.80;99.90
20858;DHT22;10589;53.636;10.012;2023-12-20T07:01:00;5.80;99.90
20858;DHT22;10589;53.636;10.012;2023-12-20T07:03:26;5.80;99.90
20858;DHT22;10589;53.636;10.012;2023-12-20T07:05:51;5.80;99.90
20858;DHT22;10589;53.636;10.012;2023-12-20T07:08:17;5.80;99.90
20858;DHT22;10589;53.636;10.012;2023-12-20T07:10:43;5.80;99.90
20858;DHT22;10589;53.636;10.012;2023-12-20T07:13:08;5.80;99.90
20858;DHT22;10589;53.636;10.012;2023-12-20T07:15:34;5.80;99.90
20858;DHT22;10589;53.636;10.012;2023-12-20T07:18:01;5.80;99.90
20858;DHT22;10589;53.636;10.012;2023-12-20T07:20:26;5.70;99.90
20858;DHT22;10589;53.636;10.012;2023-12-20T07:22:52;5.80;99.90
20858;DHT22;10589;53.636;10.012;2023-12-20T07:25:18;5.80;99.90
20858;DHT22;10589;53.636;10.012;2023-12-20T07:27:43;5.80;99.90
20858;DHT22;10589;53.636;10.012;2023-12-20T07:30:09;5.80;99.90
20858;DHT22;10589;53.636;10.012;2023-12-20T07:32:35;5.80;99.90
20858;DHT22;10589;53.636;10.012;2023-12-20T07:35:01;5.70;99.90
20858;DHT22;10589;53.636;10.012;2023-12-20T07:37:28;5.80;99.90
20858;DHT22;10589;53.636;10.012;2023-12-20T07:39:53;5.90;99.90
20858;DHT22;10589;53.636;10.012;2023-12-20T07:42:19;5.90;99.90
20858;DHT22;10589;53.636;10.012;2023-12-20T07:44:45;5.90;99.90
20858;DHT22;10589;53.636;10.012;2023-12-20T07:47:10;5.90;99.90
20858;DHT22;10589;53.636;10.012;2023-12-20T07:49:40;5.80;99.90
20858;DHT22;10589;53.636;10.012;2023-12-20T07:52:06;5.80;99.90
20858;DHT22;10589;53.636;10.012;2023-12-20T07:54:33;5.80;99.90
20858;DHT22;10589;53.636;10.012;2023-12-20T07:56:59;5.80;99.90
20858;DHT22;10589;53.636;10.012;2023-12-20T07:59:24;5.90;99.90
20858;DHT22;10589;53.636;10.012;2023-12-20T08:01:50;5.80;99.90
20858;DHT22;10589;53.636;10.012;2023-12-20T08:04:16;5.90;99.90
20858;DHT22;10589;53.636;10.012;2023-12-20T08:06:41;5.90;99.90
20858;DHT22;10589;53.636;10.012;2023-12-20T08:09:07;5.90;99.90
20858;DHT22;10589;53.636;10.012;2023-12-20T08:11:32;5.90;99.90
20858;DHT22;10589;53.636;10.012;2023-12-20T08:13:58;5.90;99.90
20858;DHT22;10589;53.636;10.012;2023-12-20T08:16:23;6.00;99.90
20858;DHT22;10589;53.636;10.012;2023-12-20T08:18:50;6.00;99.90
20858;DHT22;10589;53.636;10.012;2023-12-20T08:21:16;6.10;99.90
20858;DHT22;10589;53.636;10.012;2023-12-20T08:23:41;6.10;99.90
20858;DHT22;10589;53.636;10.012;2023-12-20T08:26:07;6.10;99.90
20858;DHT22;10589;53.636;10.012;2023-12-20T08:28:34;6.10;99.90
20858;DHT22;10589;53.636;10.012;2023-12-20T08:31:00;6.10;99.90
20858;DHT22;10589;53.636;10.012;2023-12-20T08:33:26;6.10;99.90
20858;DHT22;10589;53.636;10.012;2023-12-20T08:35:51;6.10;99.90
20858;DHT22;10589;53.636;10.012;2023-12-20T08:38:17;6.10;99.90
20858;DHT22;10589;53.636;10.012;2023-12-20T08:40:43;6.10;99.90
20858;DHT22;10589;53.636;10.012;2023-12-20T08:43:09;6.20;99.90
20858;DHT22;10589;53.636;10.012;2023-12-20T08:45:34;6.20;99.90
20858;DHT22;10589;53.636;10.012;2023-12-20T08:48:00;6.30;99.90
20858;DHT22;10589;53.636;10.012;2023-12-20T08:50:26;6.30;99.90
20858;DHT22;10589;53.636;10.012;2023-12-20T08:52:51;6.40;99.90
20858;DHT22;10589;53.636;10.012;2023-12-20T08:55:17;6.40;99.90
20858;DHT22;10589;53.636;10.012;2023-12-20T08:57:43;6.40;99.90
20858;DHT22;10589;53.636;10.012;2023-12-20T09:00:10;6.30;99.90
20858;DHT22;10589;53.636;10.012;2023-12-20T09:02:35;6.30;99.90
20858;DHT22;10589;53.636;10.012;2023-12-20T09:05:02;6.30;99.90
20858;DHT22;10589;53.636;10.012;2023-12-20T09:07:28;6.30;99.90
20858;DHT22;10589;53.636;10.012;2023-12-20T09:09:56;6.30;99.90
20858;DHT22;10589;53.636;10.012;2023-12-20T09:12:22;6.30;99.90
20858;DHT22;10589;53.636;10.012;2023-12-20T09:14:48;6.20;99.90
20858;DHT22;10589;53.636;10.012;2023-12-20T09:17:15;6.20;99.90
20858;DHT22;10589;53.636;10.012;2023-12-20T09:19:41;6.20;99.90
20858;DHT22;10589;53.636;10.012;2023-12-20T09:22:09;6.10;99.90
20858;DHT22;10589;53.636;10.012;2023-12-20T09:24:35;6.10;99.90
20858;DHT22;10589;53.636;10.012;2023-12-20T09:27:00;6.10;99.90
20858;DHT22;10589;53.636;10.012;2023-12-20T09:29:26;6.10;99.90
20858;DHT22;10589;53.636;10.012;2023-12-20T09:31:52;6.00;99.90
20858;DHT22;10589;53.636;10.012;2023-12-20T09:34:17;6.00;99.90
20858;DHT22;10589;53.636;10.012;2023-12-20T09:36:43;6.00;99.90
20858;DHT22;10589;53.636;10.012;2023-12-20T09:39:16;6.00;99.90
20858;DHT22;10589;53.636;10.012;2023-12-20T09:41:58;6.00;99.90
20858;DHT22;10589;53.636;10.012;2023-12-20T09:44:25;6.00;99.90
20858;DHT22;10589;53.636;10.012;2023-12-20T09:46:52;6.00;99.90
20858;DHT22;10589;53.636;10.012;2023-12-20T09:49:19;5.90;99.90
20858;DHT22;10589;53.636;10.012;2023-12-20T09:51:46;5.90;99.90
20858;DHT22;10589;53.636;10.012;2023-12-20T09:54:14;5.90;99.90
20858;DHT22;10589;53.636;10.012;2023-12-20T09:56:40;5.80;99.90
20858;DHT22;10589;53.636;10.012;2023-12-20T09:59:06;5.80;99.90
20858;DHT22;10589;53.636;10.012;2023-12-20T10:01:32;5.70;99.90
20858;DHT22;10589;53.636;10.012;2023-12-20T10:04:00;5.70;99.90
20858;DHT22;10589;53.636;10.012;2023-12-20T10:06:26;5.60;99.90
20858;DHT22;10589;53.636;10.012;2023-12-20T10:08:52;5.50;99.90
20858;DHT22;10589;53.636;10.012;2023-12-20T10:11:19;5.40;99.90
20858;DHT22;10589;53.636;10.012;2023-12-20T10:13:48;5.30;99.90
20858;DHT22;10589;53.636;10.012;2023-12-20T10:16:13;5.30;99.90
20858;DHT22;10589;53.636;10.012;2023-12-20T10:18:39;5.30;99.90
20858;DHT22;10589;53.636;10.012;2023-12-20T10:21:06;5.40;99.90
20858;DHT22;10589;53.636;10.012;2023-12-20T10:23:33;5.40;99.90
20858;DHT22;10589;53.636;10.012;2023-12-20T10:25:59;5.40;99.90
20858;DHT22;10589;53.636;10.012;2023-12-20T10:28:25;5.40;99.90
20858;DHT22;10589;53.636;10.012;2023-12-20T10:30:54;5.50;99.90
20858;DHT22;10589;53.636;10.012;2023-12-20T10:33:29;5.50;99.90
20858;DHT22;10589;53.636;10.012;2023-12-20T10:35:57;5.40;99.90
20858;DHT22;10589;53.636;10.012;2023-12-20T10:38:23;5.40;99.90
20858;DHT22;10589;53.636;10.012;2023-12-20T10:40:51;5.50;99.90
20858;DHT22;10589;53.636;10.012;2023-12-20T10:43:20;5.40;99.90
20858;DHT22;10589;53.636;10.012;2023-12-20T10:45:46;5.40;99.90
20858;DHT22;10589;53.636;10.012;2023-12-20T10:48:11;5.40;99.90
20858;DHT22;10589;53.636;10.012;2023-12-20T10:50:38;5.30;99.90
20858;DHT22;10589;53.636;10.012;2023-12-20T10:53:07;5.30;99.90
20858;DHT22;10589;53.636;10.012;2023-12-20T10:55:33;5.30;99.90
20858;DHT22;10589;53.636;10.012;2023-12-20T10:58:06;5.30;99.90
20858;DHT22;10589;53.636;10.012;2023-12-20T11:00:32;5.30;99.90
20858;DHT22;10589;53.636;10.012;2023-12-20T11:03:01;5.30;99.90
20858;DHT22;10589;53.636;10.012;2023-12-20T11:05:54;5.40;99.90
20858;DHT22;10589;53.636;10.012;2023-12-20T11:08:21;5.40;99.90
20858;DHT22;10589;53.636;10.012;2023-12-20T11:13:31;5.30;99.90
20858;DHT22;10589;53.636;10.012;2023-12-20T11:15:58;5.30;99.90
20858;DHT22;10589;53.636;10.012;2023-12-20T11:18:31;5.30;99.90
20858;DHT22;10589;53.636;10.012;2023-12-20T11:21:01;5.30;99.90
20858;DHT22;10589;53.636;10.012;2023-12-20T11:23:29;5.30;99.90
20858;DHT22;10589;53.636;10.012;2023-12-20T11:25:57;5.10;99.90
20858;DHT22;10589;53.636;10.012;2023-12-20T11:28:26;5.10;99.90
20858;DHT22;10589;53.636;10.012;2023-12-20T11:30:53;5.10;99.90
20858;DHT22;10589;53.636;10.012;2023-12-20T11:33:26;5.00;99.90
20858;DHT22;10589;53.636;10.012;2023-12-20T11:35:55;5.00;99.90
20858;DHT22;10589;53.636;10.012;2023-12-20T11:38:21;4.90;99.90
20858;DHT22;10589;53.636;10.012;2023-12-20T11:40:49;4.90;99.90
20858;DHT22;10589;53.636;10.012;2023-12-20T11:43:36;5.00;99.90
20858;DHT22;10589;53.636;10.012;2023-12-20T11:46:04;5.00;99.90
20858;DHT22;10589;53.636;10.012;2023-12-20T11:48:31;4.90;99.90
20858;DHT22;10589;53.636;10.012;2023-12-20T11:50:57;4.80;99.90
20858;DHT22;10589;53.636;10.012;2023-12-20T11:53:22;4.80;99.90
20858;DHT22;10589;53.636;10.012;2023-12-20T11:55:49;4.80;99.90
20858;DHT22;10589;53.636;10.012;2023-12-20T11:58:15;4.90;99.90
20858;DHT22;10589;53.636;10.012;2023-12-20T12:00:42;5.00;99.90
20858;DHT22;10589;53.636;10.012;2023-12-20T12:03:09;5.10;99.90
20858;DHT22;10589;53.636;10.012;2023-12-20T12:05:35;5.20;99.90
20858;DHT22;10589;53.636;10.012;2023-12-20T12:08:02;5.30;99.90
20858;DHT22;10589;53.636;10.012;2023-12-20T12:10:28;5.30;99.90
20858;DHT22;10589;53.636;10.012;2023-12-20T12:12:54;5.40;99.90
20858;DHT22;10589;53.636;10.012;2023-12-20T12:15:20;5.40;99.90
20858;DHT22;10589;53.636;10.012;2023-12-20T12:17:56;5.40;99.90
20858;DHT22;10589;53.636;10.012;2023-12-20T12:20:23;5.60;99.90
20858;DHT22;10589;53.636;10.012;2023-12-20T12:23:03;5.60;99.90
20858;DHT22;10589;53.636;10.012;2023-12-20T12:25:29;5.70;99.90
20858;DHT22;10589;53.636;10.012;2023-12-20T12:27:57;5.90;99.90
20858;DHT22;10589;53.636;10.012;2023-12-20T12:30:23;6.00;99.90
20858;DHT22;10589;53.636;10.012;2023-12-20T12:32:51;6.10;99.90
20858;DHT22;10589;53.636;10.012;2023-12-20T12:35:17;6.20;99.90
20858;DHT22;10589;53.636;10.012;2023-12-20T12:37:43;6.30;99.90
20858;DHT22;10589;53.636;10.012;2023-12-20T12:40:13;6.40;99.90
20858;DHT22;10589;53.636;10.012;2023-12-20T12:42:41;6.50;99.90
20858;DHT22;10589;53.636;10.012;2023-12-20T12:45:07;6.50;99.90
20858;DHT22;10589;53.636;10.012;2023-12-20T12:47:34;6.50;99.90
20858;DHT22;10589;53.636;10.012;2023-12-20T12:50:00;6.60;99.90
20858;DHT22;10589;53.636;10.012;2023-12-20T12:52:25;6.40;99.90
20858;DHT22;10589;53.636;10.012;2023-12-20T12:54:52;6.50;99.90
20858;DHT22;10589;53.636;10.012;2023-12-20T12:57:18;6.40;99.90
20858;DHT22;10589;53.636;10.012;2023-12-20T12:59:45;6.30;99.90
20858;DHT22;10589;53.636;10.012;2023-12-20T13:02:14;6.30;99.90
20858;DHT22;10589;53.636;10.012;2023-12-20T13:04:43;6.30;99.90
20858;DHT22;10589;53.636;10.012;2023-12-20T13:07:09;6.30;99.90
20858;DHT22;10589;53.636;10.012;2023-12-20T13:09:38;6.20;99.90
20858;DHT22;10589;53.636;10.012;2023-12-20T13:12:05;6.30;99.90
20858;DHT22;10589;53.636;10.012;2023-12-20T13:14:35;6.10;99.90
20858;DHT22;10589;53.636;10.012;2023-12-20T13:17:02;6.10;99.90
20858;DHT22;10589;53.636;10.012;2023-12-20T13:19:29;6.10;99.90
20858;DHT22;10589;53.636;10.012;2023-12-20T13:21:56;6.10;99.90
20858;DHT22;10589;53.636;10.012;2023-12-20T13:24:21;6.10;99.90
20858;DHT22;10589;53.636;10.012;2023-12-20T13:26:47;6.10;99.90
20858;DHT22;10589;53.636;10.012;2023-12-20T13:29:13;6.10;99.90
20858;DHT22;10589;53.636;10.012;2023-12-20T13:31:38;6.10;99.90
20858;DHT22;10589;53.636;10.012;2023-12-20T13:34:06;6.20;99.90
20858;DHT22;10589;53.636;10.012;2023-12-20T13:36:31;6.20;99.90
20858;DHT22;10589;53.636;10.012;2023-12-20T13:38:57;6.10;99.90
20858;DHT22;10589;53.636;10.012;2023-12-20T13:41:23;6.00;99.90
20858;DHT22;10589;53.636;10.012;2023-12-20T13:43:48;5.90;99.90
20858;DHT22;10589;53.636;10.012;2023-12-20T13:46:14;5.90;99.90
20858;DHT22;10589;53.636;10.012;2023-12-20T13:48:40;5.90;99.90
20858;DHT22;10589;53.636;10.012;2023-12-20T13:51:05;5.80;99.90
20858;DHT22;10589;53.636;10.012;2023-12-20T13:53:31;5.80;99.90
20858;DHT22;10589;53.636;10.012;2023-12-20T13:55:57;5.80;99.90
20858;DHT22;10589;53.636;10.012;2023-12-20T13:58:23;5.70;99.90
20858;DHT22;10589;53.636;10.012;2023-12-20T14:00:48;5.70;99.90
20858;DHT22;10589;53.636;10.012;2023-12-20T14:03:14;5.70;99.90
20858;DHT22;10589;53.636;10.012;2023-12-20T14:05:40;5.70;99.90
20858;DHT22;10589;53.636;10.012;2023-12-20T14:08:06;5.70;99.90
20858;DHT22;10589;53.636;10.012;2023-12-20T14:10:33;5.70;99.90
20858;DHT22;10589;53.636;10.012;2023-12-20T14:12:58;5.60;99.90
20858;DHT22;10589;53.636;10.012;2023-12-20T14:15:24;5.60;99.90
20858;DHT22;10589;53.636;10.012;2023-12-20T14:17:51;5.60;99.90
20858;DHT22;10589;53.636;10.012;2023-12-20T14:20:16;5.40;99.90
20858;DHT22;10589;53.636;10.012;2023-12-20T14:22:43;5.40;99.90
20858;DHT22;10589;53.636;10.012;2023-12-20T14:25:13;5.50;99.90
20858;DHT22;10589;53.636;10.012;2023-12-20T14:27:39;5.50;99.90
20858;DHT22;10589;53.636;10.012;2023-12-20T14:30:06;5.50;99.90
20858;DHT22;10589;53.636;10.012;2023-12-20T14:32:34;5.40;99.90
20858;DHT22;10589;53.636;10.012;2023-12-20T14:35:00;5.40;99.90
20858;DHT22;10589;53.636;10.012;2023-12-20T14:37:26;5.40;99.90
20858;DHT22;10589;53.636;10.012;2023-12-20T14:39:52;5.40;99.90
20858;DHT22;10589;53.636;10.012;2023-12-20T14:42:17;5.40;99.90
20858;DHT22;10589;53.636;10.012;2023-12-20T14:44:43;5.40;99.90
20858;DHT22;10589;53.636;10.012;2023-12-20T14:47:09;5.40;99.90
20858;DHT22;10589;53.636;10.012;2023-12-20T14:49:35;5.30;99.90
20858;DHT22;10589;53.636;10.012;2023-12-20T14:52:01;5.30;99.90
20858;DHT22;10589;53.636;10.012;2023-12-20T14:54:27;5.30;99.90
20858;DHT22;10589;53.636;10.012;2023-12-20T14:56:52;5.40;99.90
20858;DHT22;10589;53.636;10.012;2023-12-20T14:59:18;5.40;99.90
20858;DHT22;10589;53.636;10.012;2023-12-20T15:01:44;5.40;99.90
20858;DHT22;10589;53.636;10.012;2023-12-20T15:04:10;5.50;99.90
20858;DHT22;10589;53.636;10.012;2023-12-20T15:06:36;5.40;99.90
20858;DHT22;10589;53.636;10.012;2023-12-20T15:09:01;5.40;99.90
20858;DHT22;10589;53.636;10.012;2023-12-20T15:11:31;5.40;99.90
20858;DHT22;10589;53.636;10.012;2023-12-20T15:13:56;5.40;99.90
20858;DHT22;10589;53.636;10.012;2023-12-20T15:16:24;5.40;99.90
20858;DHT22;10589;53.636;10.012;2023-12-20T15:18:51;5.50;99.90
20858;DHT22;10589;53.636;10.012;2023-12-20T15:21:16;5.50;99.90
20858;DHT22;10589;53.636;10.012;2023-12-20T15:23:42;5.50;99.90
20858;DHT22;10589;53.636;10.012;2023-12-20T15:26:33;5.50;99.90
20858;DHT22;10589;53.636;10.012;2023-12-20T15:28:59;5.50;99.90
20858;DHT22;10589;53.636;10.012;2023-12-20T15:31:27;5.50;99.90
20858;DHT22;10589;53.636;10.012;2023-12-20T15:33:52;5.40;99.90
20858;DHT22;10589;53.636;10.012;2023-12-20T15:36:19;5.40;99.90
20858;DHT22;10589;53.636;10.012;2023-12-20T15:38:44;5.40;99.90
20858;DHT22;10589;53.636;10.012;2023-12-20T15:41:20;5.50;99.90
20858;DHT22;10589;53.636;10.012;2023-12-20T15:43:46;5.50;99.90
20858;DHT22;10589;53.636;10.012;2023-12-20T15:46:11;5.40;99.90
20858;DHT22;10589;53.636;10.012;2023-12-20T15:48:37;5.40;99.90
20858;DHT22;10589;53.636;10.012;2023-12-20T15:51:06;5.30;99.90
20858;DHT22;10589;53.636;10.012;2023-12-20T15:53:32;5.40;99.90
20858;DHT22;10589;53.636;10.012;2023-12-20T15:55:58;5.40;99.90
20858;DHT22;10589;53.636;10.012;2023-12-20T15:58:24;5.30;99.90
20858;DHT22;10589;53.636;10.012;2023-12-20T16:00:49;5.20;99.90
20858;DHT22;10589;53.636;10.012;2023-12-20T16:03:15;5.20;99.90
20858;DHT22;10589;53.636;10.012;2023-12-20T16:05:41;5.20;99.90
20858;DHT22;10589;53.636;10.012;2023-12-20T16:08:07;5.20;99.90
20858;DHT22;10589;53.636;10.012;2023-12-20T16:10:32;5.30;99.90
20858;DHT22;10589;53.636;10.012;2023-12-20T16:12:58;5.30;99.90
20858;DHT22;10589;53.636;10.012;2023-12-20T16:15:24;5.40;99.90
20858;DHT22;10589;53.636;10.012;2023-12-20T16:17:50;5.30;99.90
20858;DHT22;10589;53.636;10.012;2023-12-20T16:20:16;5.30;99.90
20858;DHT22;10589;53.636;10.012;2023-12-20T16:22:41;5.30;99.90
20858;DHT22;10589;53.636;10.012;2023-12-20T16:25:07;5.40;99.90
20858;DHT22;10589;53.636;10.012;2023-12-20T16:27:34;5.50;99.90
20858;DHT22;10589;53.636;10.012;2023-12-20T16:30:00;5.50;99.90
20858;DHT22;10589;53.636;10.012;2023-12-20T16:32:25;5.60;99.90
20858;DHT22;10589;53.636;10.012;2023-12-20T16:34:51;5.50;99.90
20858;DHT22;10589;53.636;10.012;2023-12-20T16:37:18;5.40;99.90
20858;DHT22;10589;53.636;10.012;2023-12-20T16:39:43;5.30;99.90
20858;DHT22;10589;53.636;10.012;2023-12-20T16:42:09;5.20;99.90
20858;DHT22;10589;53.636;10.012;2023-12-20T16:44:35;5.00;99.90
20858;DHT22;10589;53.636;10.012;2023-12-20T16:47:00;4.70;99.90
20858;DHT22;10589;53.636;10.012;2023-12-20T16:49:26;4.60;99.90
20858;DHT22;10589;53.636;10.012;2023-12-20T16:51:52;4.50;99.90
20858;DHT22;10589;53.636;10.012;2023-12-20T16:54:17;4.40;99.90
20858;DHT22;10589;53.636;10.012;2023-12-20T16:56:43;4.40;99.90
20858;DHT22;10589;53.636;10.012;2023-12-20T16:59:09;4.20;99.90
20858;DHT22;10589;53.636;10.012;2023-12-20T17:01:35;4.20;99.90
20858;DHT22;10589;53.636;10.012;2023-12-20T17:04:01;4.10;99.90
20858;DHT22;10589;53.636;10.012;2023-12-20T17:06:27;4.10;99.90
20858;DHT22;10589;53.636;10.012;2023-12-20T17:08:52;4.00;99.90
20858;DHT22;10589;53.636;10.012;2023-12-20T17:11:18;4.10;99.90
20858;DHT22;10589;53.636;10.012;2023-12-20T17:13:44;4.20;99.90
20858;DHT22;10589;53.636;10.012;2023-12-20T17:16:10;4.10;99.90
20858;DHT22;10589;53.636;10.012;2023-12-20T17:18:36;4.20;99.90
20858;DHT22;10589;53.636;10.012;2023-12-20T17:21:04;4.10;99.90
20858;DHT22;10589;53.636;10.012;2023-12-20T17:23:29;4.10;99.90
20858;DHT22;10589;53.636;10.012;2023-12-20T17:25:55;4.20;99.90
20858;DHT22;10589;53.636;10.012;2023-12-20T17:28:21;4.40;99.90
20858;DHT22;10589;53.636;10.012;2023-12-20T17:30:46;4.50;99.90
20858;DHT22;10589;53.636;10.012;2023-12-20T17:33:12;4.50;99.90
20858;DHT22;10589;53.636;10.012;2023-12-20T17:35:37;4.60;99.90
20858;DHT22;10589;53.636;10.012;2023-12-20T17:38:03;4.70;99.90
20858;DHT22;10589;53.636;10.012;2023-12-20T17:40:29;4.70;99.90
20858;DHT22;10589;53.636;10.012;2023-12-20T17:42:54;4.70;99.90
20858;DHT22;10589;53.636;10.012;2023-12-20T17:45:21;4.70;99.90
20858;DHT22;10589;53.636;10.012;2023-12-20T17:47:47;4.70;99.90
20858;DHT22;10589;53.636;10.012;2023-12-20T17:50:12;4.70;99.90
20858;DHT22;10589;53.636;10.012;2023-12-20T17:52:39;4.70;99.90
20858;DHT22;10589;53.636;10.012;2023-12-20T17:55:04;4.80;99.90
20858;DHT22;10589;53.636;10.012;2023-12-20T17:57:30;4.70;99.90
20858;DHT22;10589;53.636;10.012;2023-12-20T17:59:56;4.80;99.90
20858;DHT22;10589;53.636;10.012;2023-12-20T18:02:21;4.70;99.90
20858;DHT22;10589;53.636;10.012;2023-12-20T18:04:47;4.70;99.90
20858;DHT22;10589;53.636;10.012;2023-12-20T18:07:13;4.80;99.90
20858;DHT22;10589;53.636;10.012;2023-12-20T18:09:39;4.80;99.90
20858;DHT22;10589;53.636;10.012;2023-12-20T18:12:05;4.80;99.90
20858;DHT22;10589;53.636;10.012;2023-12-20T18:14:32;4.80;99.90
20858;DHT22;10589;53.636;10.012;2023-12-20T18:16:58;4.80;99.90
20858;DHT22;10589;53.636;10.012;2023-12-20T18:19:24;4.90;99.90
20858;DHT22;10589;53.636;10.012;2023-12-20T18:21:49;4.80;99.90
20858;DHT22;10589;53.636;10.012;2023-12-20T18:24:16;4.90;99.90
20858;DHT22;10589;53.636;10.012;2023-12-20T18:26:42;4.90;99.90
20858;DHT22;10589;53.636;10.012;2023-12-20T18:29:07;4.90;99.90
20858;DHT22;10589;53.636;10.012;2023-12-20T18:31:33;4.90;99.90
20858;DHT22;10589;53.636;10.012;2023-12-20T18:33:58;5.00;99.90
20858;DHT22;10589;53.636;10.012;2023-12-20T18:36:24;5.00;99.90
20858;DHT22;10589;53.636;10.012;2023-12-20T18:38:50;5.10;99.90
20858;DHT22;10589;53.636;10.012;2023-12-20T18:41:15;5.00;99.90
20858;DHT22;10589;53.636;10.012;2023-12-20T18:43:41;5.10;99.90
20858;DHT22;10589;53.636;10.012;2023-12-20T18:46:07;5.10;99.90
20858;DHT22;10589;53.636;10.012;2023-12-20T18:48:33;5.10;99.90
20858;DHT22;10589;53.636;10.012;2023-12-20T18:50:59;5.10;99.90
20858;DHT22;10589;53.636;10.012;2023-12-20T18:53:25;5.20;99.90
20858;DHT22;10589;53.636;10.012;2023-12-20T18:55:51;5.20;99.90
20858;DHT22;10589;53.636;10.012;2023-12-20T18:58:16;5.20;99.90
20858;DHT22;10589;53.636;10.012;2023-12-20T19:00:42;5.30;99.90
20858;DHT22;10589;53.636;10.012;2023-12-20T19:03:08;5.30;99.90
20858;DHT22;10589;53.636;10.012;2023-12-20T19:05:34;5.20;99.90
20858;DHT22;10589;53.636;10.012;2023-12-20T19:08:00;5.20;99.90
20858;DHT22;10589;53.636;10.012;2023-12-20T19:10:25;5.20;99.90
20858;DHT22;10589;53.636;10.012;2023-12-20T19:12:51;5.20;99.90
20858;DHT22;10589;53.636;10.012;2023-12-20T19:15:16;5.30;99.90
20858;DHT22;10589;53.636;10.012;2023-12-20T19:17:42;5.30;99.90
20858;DHT22;10589;53.636;10.012;2023-12-20T19:20:08;5.30;99.90
20858;DHT22;10589;53.636;10.012;2023-12-20T19:22:34;5.30;99.90
20858;DHT22;10589;53.636;10.012;2023-12-20T19:25:00;5.20;99.90
20858;DHT22;10589;53.636;10.012;2023-12-20T19:27:34;5.30;99.90
20858;DHT22;10589;53.636;10.012;2023-12-20T19:30:01;5.20;99.90
20858;DHT22;10589;53.636;10.012;2023-12-20T19:32:27;5.20;99.90
20858;DHT22;10589;53.636;10.012;2023-12-20T19:34:53;5.20;99.90
20858;DHT22;10589;53.636;10.012;2023-12-20T19:37:18;5.20;99.90
20858;DHT22;10589;53.636;10.012;2023-12-20T19:39:44;5.20;99.90
20858;DHT22;10589;53.636;10.012;2023-12-20T19:42:10;5.10;99.90
20858;DHT22;10589;53.636;10.012;2023-12-20T19:44:36;5.10;99.90
20858;DHT22;10589;53.636;10.012;2023-12-20T19:47:02;5.10;99.90
20858;DHT22;10589;53.636;10.012;2023-12-20T19:49:28;5.10;99.90
20858;DHT22;10589;53.636;10.012;2023-12-20T19:51:54;5.10;99.90
20858;DHT22;10589;53.636;10.012;2023-12-20T19:54:19;5.20;99.90
20858;DHT22;10589;53.636;10.012;2023-12-20T19:56:46;5.20;99.90
20858;DHT22;10589;53.636;10.012;2023-12-20T19:59:11;5.10;99.90
20858;DHT22;10589;53.636;10.012;2023-12-20T20:01:37;5.10;99.90
20858;DHT22;10589;53.636;10.012;2023-12-20T20:04:07;5.10;99.90
20858;DHT22;10589;53.636;10.012;2023-12-20T20:06:33;5.20;99.90
20858;DHT22;10589;53.636;10.012;2023-12-20T20:08:59;5.10;99.90
20858;DHT22;10589;53.636;10.012;2023-12-20T20:11:24;5.10;99.90
20858;DHT22;10589;53.636;10.012;2023-12-20T20:13:50;5.10;99.90